sensor_id;sensor_type;location;lat;lon;timestamp;pressure;altitude;pressure_sealevel;temperature;humidity
25869;BME280;13688;53.154;18.136;2023-02-28T00:02:52;102546.91;;;-5.57;89.11
25869;BME280;13688;53.154;18.136;2023-02-28T00:08:14;102544.89;;;-5.72;89.57
25869;BME280;13688;53.154;18.136;2023-02-28T00:13:39;102546.14;;;-5.50;90.46
25869;BME280;13688;53.154;18.136;2023-02-28T00:19:02;102548.84;;;-5.47;91.16
25869;BME280;13688;53.154;18.136;2023-02-28T00:24:25;102548.84;;;-5.47;91.84
25869;BME280;13688;53.154;18.136;2023-02-28T00:29:47;102548.31;;;-5.76;92.22
25869;BME280;13688;53.154;18.136;2023-02-28T00:35:11;102555.34;;;-5.73;92.67
25869;BME280;13688;53.154;18.136;2023-02-28T00:40:35;102548.22;;;-5.81;93.15
25869;BME280;13688;53.154;18.136;2023-02-28T00:45:57;102549.61;;;-6.01;93.48
25869;BME280;13688;53.154;18.136;2023-02-28T00:51:20;102554.50;;;-6.18;93.75
25869;BME280;13688;53.154;18.136;2023-02-28T00:56:42;102547.14;;;-5.93;94.41
25869;BME280;13688;53.154;18.136;2023-02-28T01:02:04;102545.58;;;-5.82;95.14
25869;BME280;13688;53.154;18.136;2023-02-28T01:07:28;102549.56;;;-6.04;95.53
25869;BME280;13688;53.154;18.136;2023-02-28T01:12:51;102554.27;;;-6.30;95.76
25869;BME280;13688;53.154;18.136;2023-02-28T01:18:13;102562.47;;;-6.13;96.40
25869;BME280;13688;53.154;18.136;2023-02-28T01:23:36;102563.69;;;-5.96;97.01
25869;BME280;13688;53.154;18.136;2023-02-28T01:28:59;102569.49;;;-6.11;97.39
25869;BME280;13688;53.154;18.136;2023-02-28T01:34:21;102559.45;;;-5.88;98.02
25869;BME280;13688;53.154;18.136;2023-02-28T01:39:44;102549.03;;;-5.85;98.61
25869;BME280;13688;53.154;18.136;2023-02-28T01:45:18;102549.00;;;-5.86;99.05
25869;BME280;13688;53.154;18.136;2023-02-28T01:50:46;102549.98;;;-5.80;99.72
25869;BME280;13688;53.154;18.136;2023-02-28T01:56:13;102541.14;;;-5.86;100.00
25869;BME280;13688;53.154;18.136;2023-02-28T02:01:38;102537.14;;;-6.14;100.00
25869;BME280;13688;53.154;18.136;2023-02-28T02:07:01;102544.45;;;-6.40;100.00
25869;BME280;13688;53.154;18.136;2023-02-28T02:41:36;102551.28;;;-6.47;100.00
25869;BME280;13688;53.154;18.136;2023-02-28T02:47:12;102555.49;;;-6.55;100.00
25869;BME280;13688;53.154;18.136;2023-02-28T02:52:38;102554.34;;;-6.66;100.00
25869;BME280;13688;53.154;18.136;2023-02-28T02:58:08;102548.97;;;-6.33;100.00
25869;BME280;13688;53.154;18.136;2023-02-28T03:03:33;102554.04;;;-6.41;100.00
25869;BME280;13688;53.154;18.136;2023-02-28T03:08:56;102551.20;;;-6.51;100.00
25869;BME280;13688;53.154;18.136;2023-02-28T03:14:32;102550.73;;;-6.73;100.00
25869;BME280;13688;53.154;18.136;2023-02-28T03:20:16;102551.34;;;-6.84;100.00
25869;BME280;13688;53.154;18.136;2023-02-28T03:26:06;102544.17;;;-6.93;100.00
25869;BME280;13688;53.154;18.136;2023-02-28T03:31:44;102557.55;;;-6.79;100.00
25869;BME280;13688;53.154;18.136;2023-02-28T03:37:13;102564.70;;;-6.72;100.00
25869;BME280;13688;53.154;18.136;2023-02-28T03:42:38;102563.39;;;-6.91;100.00
25869;BME280;13688;53.154;18.136;2023-02-28T03:48:09;102558.41;;;-7.16;100.00
25869;BME280;13688;53.154;18.136;2023-02-28T03:53:38;102568.64;;;-7.26;100.00
25869;BME280;13688;53.154;18.136;2023-02-28T03:59:25;102574.97;;;-7.16;100.00
25869;BME280;13688;53.154;18.136;2023-02-28T04:04:48;102580.83;;;-7.26;100.00
25869;BME280;13688;53.154;18.136;2023-02-28T04:10:11;102576.34;;;-6.96;100.00
25869;BME280;13688;53.154;18.136;2023-02-28T04:15:33;102580.74;;;-6.16;100.00
25869;BME280;13688;53.154;18.136;2023-02-28T04:20:59;102573.66;;;-6.20;100.00
25869;BME280;13688;53.154;18.136;2023-02-28T04:26:20;102573.30;;;-6.37;100.00
25869;BME280;13688;53.154;18.136;2023-02-28T04:31:47;102575.59;;;-6.52;100.00
25869;BME280;13688;53.154;18.136;2023-02-28T04:37:10;102581.97;;;-6.79;100.00
25869;BME280;13688;53.154;18.136;2023-02-28T04:42:34;102586.95;;;-6.89;100.00
25869;BME280;13688;53.154;18.136;2023-02-28T04:47:57;102594.28;;;-7.11;100.00
25869;BME280;13688;53.154;18.136;2023-02-28T04:53:19;102596.28;;;-7.01;100.00
25869;BME280;13688;53.154;18.136;2023-02-28T04:58:42;102582.38;;;-6.98;100.00
25869;BME280;13688;53.154;18.136;2023-02-28T05:04:05;102595.98;;;-7.13;100.00
25869;BME280;13688;53.154;18.136;2023-02-28T05:09:27;102595.76;;;-7.22;100.00
25869;BME280;13688;53.154;18.136;2023-02-28T05:14:50;102607.73;;;-7.30;100.00
25869;BME280;13688;53.154;18.136;2023-02-28T05:20:13;102605.70;;;-7.42;100.00
25869;BME280;13688;53.154;18.136;2023-02-28T05:25:35;102603.16;;;-7.39;100.00
25869;BME280;13688;53.154;18.136;2023-02-28T05:30:57;102609.50;;;-7.29;100.00
25869;BME280;13688;53.154;18.136;2023-02-28T05:36:20;102604.98;;;-7.35;100.00
25869;BME280;13688;53.154;18.136;2023-02-28T05:41:43;102599.86;;;-7.32;100.00
25869;BME280;13688;53.154;18.136;2023-02-28T05:47:05;102604.98;;;-7.35;100.00
25869;BME280;13688;53.154;18.136;2023-02-28T05:52:28;102612.12;;;-7.29;100.00
25869;BME280;13688;53.154;18.136;2023-02-28T05:57:51;102608.14;;;-7.48;100.00
25869;BME280;13688;53.154;18.136;2023-02-28T06:03:13;102614.42;;;-7.41;100.00
25869;BME280;13688;53.154;18.136;2023-02-28T06:08:36;102616.39;;;-7.33;100.00
25869;BME280;13688;53.154;18.136;2023-02-28T06:14:05;102617.67;;;-7.50;100.00
25869;BME280;13688;53.154;18.136;2023-02-28T06:19:31;102613.47;;;-7.43;100.00
25869;BME280;13688;53.154;18.136;2023-02-28T06:24:54;102626.60;;;-7.42;100.00
25869;BME280;13688;53.154;18.136;2023-02-28T06:30:17;102628.91;;;-7.19;100.00
25869;BME280;13688;53.154;18.136;2023-02-28T06:35:51;102632.55;;;-6.78;100.00
25869;BME280;13688;53.154;18.136;2023-02-28T06:41:14;102626.59;;;-6.73;100.00
25869;BME280;13688;53.154;18.136;2023-02-28T06:46:40;102642.16;;;-6.77;100.00
25869;BME280;13688;53.154;18.136;2023-02-28T06:52:03;102638.27;;;-6.57;100.00
25869;BME280;13688;53.154;18.136;2023-02-28T06:57:29;102648.23;;;-6.42;100.00
25869;BME280;13688;53.154;18.136;2023-02-28T07:02:52;102640.87;;;-6.19;100.00
25869;BME280;13688;53.154;18.136;2023-02-28T07:08:15;102655.49;;;-5.88;100.00
25869;BME280;13688;53.154;18.136;2023-02-28T07:13:38;102661.85;;;-5.76;100.00
25869;BME280;13688;53.154;18.136;2023-02-28T07:19:00;102656.57;;;-5.32;100.00
25869;BME280;13688;53.154;18.136;2023-02-28T07:24:23;102648.63;;;-4.86;100.00
25869;BME280;13688;53.154;18.136;2023-02-28T07:29:45;102657.83;;;-4.58;100.00
25869;BME280;13688;53.154;18.136;2023-02-28T07:35:11;102650.26;;;-4.39;100.00
25869;BME280;13688;53.154;18.136;2023-02-28T07:40:35;102648.94;;;-4.08;100.00
25869;BME280;13688;53.154;18.136;2023-02-28T07:46:04;102649.20;;;-3.86;100.00
25869;BME280;13688;53.154;18.136;2023-02-28T07:51:25;102651.17;;;-3.68;100.00
25869;BME280;13688;53.154;18.136;2023-02-28T07:56:49;102654.02;;;-3.50;100.00
25869;BME280;13688;53.154;18.136;2023-02-28T08:02:15;102646.42;;;-3.23;100.00
25869;BME280;13688;53.154;18.136;2023-02-28T08:07:38;102652.83;;;-2.95;100.00
25869;BME280;13688;53.154;18.136;2023-02-28T08:13:00;102653.08;;;-2.64;100.00
25869;BME280;13688;53.154;18.136;2023-02-28T08:18:23;102654.16;;;-2.35;100.00
25869;BME280;13688;53.154;18.136;2023-02-28T08:23:49;102654.28;;;-2.15;100.00
25869;BME280;13688;53.154;18.136;2023-02-28T08:29:11;102653.55;;;-1.92;100.00
25869;BME280;13688;53.154;18.136;2023-02-28T08:34:34;102643.92;;;-1.78;100.00
25869;BME280;13688;53.154;18.136;2023-02-28T08:39:56;102641.32;;;-1.64;98.04
25869;BME280;13688;53.154;18.136;2023-02-28T08:45:20;102632.59;;;-1.50;94.26
25869;BME280;13688;53.154;18.136;2023-02-28T08:50:54;102629.97;;;-1.36;91.03
25869;BME280;13688;53.154;18.136;2023-02-28T08:56:16;102615.94;;;-1.07;88.56
25869;BME280;13688;53.154;18.136;2023-02-28T09:01:38;102616.83;;;-0.82;86.19
25869;BME280;13688;53.154;18.136;2023-02-28T09:07:01;102624.72;;;-0.50;83.53
25869;BME280;13688;53.154;18.136;2023-02-28T09:12:27;102628.17;;;-0.19;81.10
25869;BME280;13688;53.154;18.136;2023-02-28T09:17:51;102632.58;;;-0.20;78.23
25869;BME280;13688;53.154;18.136;2023-02-28T09:23:14;102631.69;;;-0.13;76.19
25869;BME280;13688;53.154;18.136;2023-02-28T09:28:38;102627.22;;;0.06;75.06
25869;BME280;13688;53.154;18.136;2023-02-28T09:34:03;102619.26;;;0.14;73.60
25869;BME280;13688;53.154;18.136;2023-02-28T09:39:28;102623.61;;;0.25;72.26
25869;BME280;13688;53.154;18.136;2023-02-28T09:44:52;102638.55;;;0.40;71.06
25869;BME280;13688;53.154;18.136;2023-02-28T09:56:04;102641.85;;;0.79;69.44
25869;BME280;13688;53.154;18.136;2023-02-28T10:01:57;102628.42;;;1.03;68.00
25869;BME280;13688;53.154;18.136;2023-02-28T10:13:02;102623.73;;;1.34;65.98
25869;BME280;13688;53.154;18.136;2023-02-28T10:18:36;102627.02;;;1.61;65.40
25869;BME280;13688;53.154;18.136;2023-02-28T10:24:03;102615.80;;;2.80;63.94
25869;BME280;13688;53.154;18.136;2023-02-28T10:29:31;102616.73;;;3.80;58.91
25869;BME280;13688;53.154;18.136;2023-02-28T10:35:15;102606.86;;;5.41;55.10
25869;BME280;13688;53.154;18.136;2023-02-28T10:40:40;102593.55;;;6.05;50.15
25869;BME280;13688;53.154;18.136;2023-02-28T10:46:17;102591.32;;;5.23;47.87
25869;BME280;13688;53.154;18.136;2023-02-28T10:51:42;102595.77;;;5.89;47.39
25869;BME280;13688;53.154;18.136;2023-02-28T10:57:16;102587.11;;;6.12;46.32
25869;BME280;13688;53.154;18.136;2023-02-28T11:02:40;102587.81;;;6.48;46.01
25869;BME280;13688;53.154;18.136;2023-02-28T11:08:15;102577.38;;;6.95;44.74
25869;BME280;13688;53.154;18.136;2023-02-28T11:13:37;102574.12;;;6.85;44.31
25869;BME280;13688;53.154;18.136;2023-02-28T11:19:01;102577.73;;;6.56;45.10
25869;BME280;13688;53.154;18.136;2023-02-28T11:24:35;102575.80;;;6.89;44.76
25869;BME280;13688;53.154;18.136;2023-02-28T11:29:58;102564.42;;;6.54;44.30
25869;BME280;13688;53.154;18.136;2023-02-28T11:35:31;102560.19;;;6.75;44.64
25869;BME280;13688;53.154;18.136;2023-02-28T11:41:05;102561.80;;;6.53;45.43
25869;BME280;13688;53.154;18.136;2023-02-28T12:09:15;102529.78;;;7.31;42.00
25869;BME280;13688;53.154;18.136;2023-02-28T12:21:14;102518.28;;;8.24;40.43
25869;BME280;13688;53.154;18.136;2023-02-28T12:26:52;102521.59;;;8.96;38.86
25869;BME280;13688;53.154;18.136;2023-02-28T12:32:42;102522.30;;;7.89;37.63
25869;BME280;13688;53.154;18.136;2023-02-28T12:38:12;102515.81;;;8.85;37.00
25869;BME280;13688;53.154;18.136;2023-02-28T12:43:42;102522.55;;;7.83;36.47
25869;BME280;13688;53.154;18.136;2023-02-28T12:49:22;102508.66;;;8.18;37.16
25869;BME280;13688;53.154;18.136;2023-02-28T12:54:54;102501.84;;;8.77;35.71
25869;BME280;13688;53.154;18.136;2023-02-28T13:00:29;102488.19;;;8.83;35.54
25869;BME280;13688;53.154;18.136;2023-02-28T13:11:50;102468.34;;;7.76;37.32
25869;BME280;13688;53.154;18.136;2023-02-28T13:17:20;102465.77;;;7.96;37.58
25869;BME280;13688;53.154;18.136;2023-02-28T13:22:52;102473.43;;;7.10;37.55
25869;BME280;13688;53.154;18.136;2023-02-28T13:28:57;102467.63;;;7.48;38.18
25869;BME280;13688;53.154;18.136;2023-02-28T13:34:12;102462.45;;;7.90;37.18
25869;BME280;13688;53.154;18.136;2023-02-28T13:50:46;102447.05;;;7.73;36.92
25869;BME280;13688;53.154;18.136;2023-02-28T14:07:49;102434.20;;;6.86;38.42
25869;BME280;13688;53.154;18.136;2023-02-28T14:13:44;102420.08;;;7.31;37.95
25869;BME280;13688;53.154;18.136;2023-02-28T14:19:12;102419.97;;;6.05;36.92
25869;BME280;13688;53.154;18.136;2023-02-28T14:24:54;102427.16;;;6.02;37.38
25869;BME280;13688;53.154;18.136;2023-02-28T14:36:31;102416.03;;;6.16;38.25
25869;BME280;13688;53.154;18.136;2023-02-28T14:41:53;102406.75;;;6.54;38.49
25869;BME280;13688;53.154;18.136;2023-02-28T14:47:19;102404.34;;;6.98;37.63
25869;BME280;13688;53.154;18.136;2023-02-28T14:52:43;102404.16;;;7.03;37.64
25869;BME280;13688;53.154;18.136;2023-02-28T14:58:27;102407.13;;;6.95;37.92
25869;BME280;13688;53.154;18.136;2023-02-28T15:04:00;102408.75;;;6.99;37.32
25869;BME280;13688;53.154;18.136;2023-02-28T15:09:24;102418.67;;;6.71;37.45
25869;BME280;13688;53.154;18.136;2023-02-28T15:14:49;102412.32;;;6.48;39.44
25869;BME280;13688;53.154;18.136;2023-02-28T15:20:14;102409.58;;;5.66;39.22
25869;BME280;13688;53.154;18.136;2023-02-28T15:25:38;102413.78;;;5.14;40.00
25869;BME280;13688;53.154;18.136;2023-02-28T15:31:04;102399.61;;;5.43;41.51
25869;BME280;13688;53.154;18.136;2023-02-28T15:36:40;102402.06;;;5.49;41.18
25869;BME280;13688;53.154;18.136;2023-02-28T15:42:23;102398.65;;;5.14;42.94
25869;BME280;13688;53.154;18.136;2023-02-28T15:47:48;102402.13;;;5.48;43.09
25869;BME280;13688;53.154;18.136;2023-02-28T15:53:15;102399.27;;;5.83;42.84
25869;BME280;13688;53.154;18.136;2023-02-28T15:58:41;102408.03;;;4.97;43.43
25869;BME280;13688;53.154;18.136;2023-02-28T16:04:19;102403.91;;;4.51;45.68
25869;BME280;13688;53.154;18.136;2023-02-28T16:09:42;102401.55;;;4.03;46.99
25869;BME280;13688;53.154;18.136;2023-02-28T16:15:06;102396.75;;;2.97;48.88
25869;BME280;13688;53.154;18.136;2023-02-28T16:20:36;102395.94;;;1.90;51.26
25869;BME280;13688;53.154;18.136;2023-02-28T16:25:59;102402.31;;;1.10;54.16
25869;BME280;13688;53.154;18.136;2023-02-28T16:31:22;102424.95;;;0.54;56.47
25869;BME280;13688;53.154;18.136;2023-02-28T16:36:47;102426.14;;;0.17;58.49
25869;BME280;13688;53.154;18.136;2023-02-28T16:42:14;102436.07;;;-0.16;59.97
25869;BME280;13688;53.154;18.136;2023-02-28T16:47:42;102438.89;;;-0.52;61.18
25869;BME280;13688;53.154;18.136;2023-02-28T16:53:04;102437.29;;;-0.93;62.53
25869;BME280;13688;53.154;18.136;2023-02-28T16:58:28;102433.84;;;-1.24;63.84
25869;BME280;13688;53.154;18.136;2023-02-28T17:03:50;102430.36;;;-1.45;65.32
25869;BME280;13688;53.154;18.136;2023-02-28T17:09:19;102427.70;;;-1.66;66.32
25869;BME280;13688;53.154;18.136;2023-02-28T17:14:44;102431.22;;;-1.91;67.37
25869;BME280;13688;53.154;18.136;2023-02-28T17:20:12;102426.78;;;-2.17;68.72
25869;BME280;13688;53.154;18.136;2023-02-28T17:25:33;102427.66;;;-2.18;70.18
25869;BME280;13688;53.154;18.136;2023-02-28T17:30:58;102424.09;;;-2.34;71.06
25869;BME280;13688;53.154;18.136;2023-02-28T17:36:22;102417.92;;;-2.42;71.91
25869;BME280;13688;53.154;18.136;2023-02-28T17:41:47;102411.74;;;-2.53;72.56
25869;BME280;13688;53.154;18.136;2023-02-28T17:47:10;102406.45;;;-2.64;73.16
25869;BME280;13688;53.154;18.136;2023-02-28T17:52:34;102404.61;;;-2.87;73.73
25869;BME280;13688;53.154;18.136;2023-02-28T17:57:57;102391.36;;;-3.04;74.47
25869;BME280;13688;53.154;18.136;2023-02-28T18:03:20;102390.53;;;-2.91;75.80
25869;BME280;13688;53.154;18.136;2023-02-28T18:08:43;102391.45;;;-2.89;76.87
25869;BME280;13688;53.154;18.136;2023-02-28T18:14:07;102377.41;;;-2.83;77.46
25869;BME280;13688;53.154;18.136;2023-02-28T18:19:30;102376.57;;;-2.79;77.64
25869;BME280;13688;53.154;18.136;2023-02-28T18:24:53;102370.27;;;-3.12;77.36
25869;BME280;13688;53.154;18.136;2023-02-28T18:30:23;102373.72;;;-3.27;77.64
25869;BME280;13688;53.154;18.136;2023-02-28T18:35:43;102379.92;;;-3.09;78.38
25869;BME280;13688;53.154;18.136;2023-02-28T18:41:10;102375.48;;;-3.20;78.83
25869;BME280;13688;53.154;18.136;2023-02-28T18:46:35;102380.67;;;-3.36;79.07
25869;BME280;13688;53.154;18.136;2023-02-28T18:51:58;102386.87;;;-3.27;79.61
25869;BME280;13688;53.154;18.136;2023-02-28T18:57:21;102373.72;;;-3.25;80.23
25869;BME280;13688;53.154;18.136;2023-02-28T19:02:44;102384.24;;;-3.24;80.63
25869;BME280;13688;53.154;18.136;2023-02-28T19:08:08;102372.84;;;-3.23;81.03
25869;BME280;13688;53.154;18.136;2023-02-28T19:13:32;102384.06;;;-3.53;80.96
25869;BME280;13688;53.154;18.136;2023-02-28T19:18:56;102382.24;;;-3.61;81.17
25869;BME280;13688;53.154;18.136;2023-02-28T19:24:19;102396.52;;;-3.26;81.53
25869;BME280;13688;53.154;18.136;2023-02-28T19:29:42;102395.45;;;-3.52;81.43
25869;BME280;13688;53.154;18.136;2023-02-28T19:35:09;102394.64;;;-3.45;81.73
25869;BME280;13688;53.154;18.136;2023-02-28T19:40:33;102391.06;;;-3.56;81.78
25869;BME280;13688;53.154;18.136;2023-02-28T19:45:58;102390.18;;;-3.57;81.88
25869;BME280;13688;53.154;18.136;2023-02-28T19:51:22;102401.78;;;-3.23;82.15
25869;BME280;13688;53.154;18.136;2023-02-28T19:56:46;102409.05;;;-2.71;82.00
25869;BME280;13688;53.154;18.136;2023-02-28T20:02:15;102414.22;;;-2.93;80.72
25869;BME280;13688;53.154;18.136;2023-02-28T20:07:41;102416.69;;;-3.23;79.01
25869;BME280;13688;53.154;18.136;2023-02-28T20:13:05;102416.69;;;-3.23;79.01
25869;BME280;13688;53.154;18.136;2023-02-28T20:18:32;102417.42;;;-3.46;79.20
25869;BME280;13688;53.154;18.136;2023-02-28T20:23:56;102409.47;;;-3.53;79.58
25869;BME280;13688;53.154;18.136;2023-02-28T20:29:20;102427.64;;;-3.82;79.90
25869;BME280;13688;53.154;18.136;2023-02-28T20:34:43;102417.14;;;-3.81;80.54
25869;BME280;13688;53.154;18.136;2023-02-28T20:40:08;102412.84;;;-3.68;81.13
25869;BME280;13688;53.154;18.136;2023-02-28T20:45:31;102404.88;;;-3.80;81.24
25869;BME280;13688;53.154;18.136;2023-02-28T20:50:57;102401.12;;;-4.07;81.24
25869;BME280;13688;53.154;18.136;2023-02-28T20:56:23;102409.15;;;-3.94;81.67
25869;BME280;13688;53.154;18.136;2023-02-28T21:01:48;102414.31;;;-4.05;81.95
25869;BME280;13688;53.154;18.136;2023-02-28T21:07:13;102410.64;;;-4.21;82.15
25869;BME280;13688;53.154;18.136;2023-02-28T21:12:38;102421.75;;;-4.45;82.32
25869;BME280;13688;53.154;18.136;2023-02-28T21:18:04;102413.07;;;-4.39;82.83
25869;BME280;13688;53.154;18.136;2023-02-28T21:23:29;102415.59;;;-4.48;83.30
25869;BME280;13688;53.154;18.136;2023-02-28T21:29:01;102406.80;;;-4.53;83.85
25869;BME280;13688;53.154;18.136;2023-02-28T21:34:26;102412.09;;;-4.49;84.49
25869;BME280;13688;53.154;18.136;2023-02-28T21:39:51;102401.50;;;-4.56;84.91
25869;BME280;13688;53.154;18.136;2023-02-28T21:45:15;102403.19;;;-4.63;85.25
25869;BME280;13688;53.154;18.136;2023-02-28T21:50:40;102402.20;;;-4.73;85.53
25869;BME280;13688;53.154;18.136;2023-02-28T21:56:30;102400.38;;;-4.78;85.87
25869;BME280;13688;53.154;18.136;2023-02-28T22:01:55;102395.92;;;-4.84;86.21
25869;BME280;13688;53.154;18.136;2023-02-28T22:07:20;102409.91;;;-4.83;86.63
25869;BME280;13688;53.154;18.136;2023-02-28T22:12:43;102402.16;;;-4.74;87.11
25869;BME280;13688;53.154;18.136;2023-02-28T22:18:08;102404.00;;;-4.67;87.46
25869;BME280;13688;53.154;18.136;2023-02-28T22:23:33;102404.88;;;-4.67;87.69
25869;BME280;13688;53.154;18.136;2023-02-28T22:28:58;102404.91;;;-4.64;87.92
25869;BME280;13688;53.154;18.136;2023-02-28T22:34:23;102406.72;;;-4.59;88.13
25869;BME280;13688;53.154;18.136;2023-02-28T22:39:48;102393.91;;;-4.30;88.55
25869;BME280;13688;53.154;18.136;2023-02-28T22:45:12;102387.98;;;-4.10;88.80
25869;BME280;13688;53.154;18.136;2023-02-28T22:50:37;102396.73;;;-4.11;88.75
25869;BME280;13688;53.154;18.136;2023-02-28T22:56:01;102402.23;;;-3.85;88.64
25869;BME280;13688;53.154;18.136;2023-02-28T23:01:31;102396.88;;;-3.95;88.01
25869;BME280;13688;53.154;18.136;2023-02-28T23:06:54;102394.27;;;-3.94;87.42
25869;BME280;13688;53.154;18.136;2023-02-28T23:12:19;102388.94;;;-4.01;86.83
25869;BME280;13688;53.154;18.136;2023-02-28T23:17:43;102386.37;;;-3.94;86.37
25869;BME280;13688;53.154;18.136;2023-02-28T23:23:08;102373.25;;;-3.91;85.93
25869;BME280;13688;53.154;18.136;2023-02-28T23:28:33;102366.30;;;-3.86;85.48
25869;BME280;13688;53.154;18.136;2023-02-28T23:33:58;102379.31;;;-3.99;84.86
25869;BME280;13688;53.154;18.136;2023-02-28T23:39:23;102386.13;;;-4.20;84.51
25869;BME280;13688;53.154;18.136;2023-02-28T23:44:47;102393.80;;;-4.41;84.41
25869;BME280;13688;53.154;18.136;2023-02-28T23:50:12;102395.36;;;-4.58;84.62
25869;BME280;13688;53.154;18.136;2023-02-28T23:55:36;102406.76;;;-4.55;85.13
